createdAt,value
2023-03-18T00:02:42.176Z,100110.16
2023-03-18T00:07:43.795Z,100118.22
2023-03-18T00:12:45.248Z,100109.19
2023-03-18T00:17:48.572Z,100098.06
2023-03-18T00:22:51.014Z,100089.91
2023-03-18T00:27:52.437Z,100084.16
2023-03-18T00:32:55.848Z,100083.75
2023-03-18T00:37:58.732Z,100078.22
2023-03-18T00:43:07.724Z,100073.09
2023-03-18T00:48:09.179Z,100075.88
2023-03-18T00:53:11.556Z,100073.53
2023-03-18T00:58:13.383Z,100074.38
2023-03-18T01:03:14.906Z,100081.00
2023-03-18T01:08:17.358Z,100081.59
2023-03-18T01:13:19.111Z,100086.63
2023-03-18T01:18:21.011Z,100086.84
2023-03-18T01:23:22.805Z,100080.16
2023-03-18T01:28:24.460Z,100078.09
2023-03-18T01:33:26.045Z,100071.91
2023-03-18T01:38:31.364Z,100074.41
2023-03-18T01:43:35.288Z,100082.59
2023-03-18T01:48:39.772Z,100063.59
2023-03-18T01:53:45.538Z,100077.13
2023-03-18T01:58:52.521Z,100063.72
2023-03-18T02:03:55.366Z,100059.28
2023-03-18T02:08:56.841Z,100065.97
2023-03-18T02:14:00.471Z,100059.66
2023-03-18T02:19:13.369Z,100070.19
2023-03-18T02:24:31.375Z,100064.34
2023-03-18T02:29:36.755Z,100063.88
2023-03-18T02:34:40.776Z,100055.22
2023-03-18T02:39:42.397Z,100060.56
2023-03-18T02:44:47.157Z,100060.03
2023-03-18T02:49:49.641Z,100044.88
2023-03-18T02:54:51.532Z,100052.66
2023-03-18T02:59:53.058Z,100053.97
2023-03-18T03:04:54.502Z,100051.31
2023-03-18T03:09:56.776Z,100057.53
2023-03-18T03:14:58.236Z,100050.81
2023-03-18T03:20:00.290Z,100057.84
2023-03-18T03:25:01.924Z,100067.25
2023-03-18T03:30:06.040Z,100066.44
2023-03-18T03:35:08.646Z,100066.66
2023-03-18T03:40:18.369Z,100070.06
2023-03-18T03:45:22.193Z,100067.16
2023-03-18T03:50:23.842Z,100064.31
2023-03-18T03:55:25.470Z,100063.53
2023-03-18T04:00:27.002Z,100073.22
2023-03-18T04:05:29.680Z,100067.34
2023-03-18T04:10:32.152Z,100069.69
2023-03-18T04:15:34.273Z,100071.72
2023-03-18T04:20:39.201Z,100082.56
2023-03-18T04:25:40.623Z,100081.72
2023-03-18T04:30:42.195Z,100083.41
2023-03-18T04:35:43.818Z,100092.28
2023-03-18T04:40:45.641Z,100094.78
2023-03-18T04:45:47.308Z,100089.44
2023-03-18T04:50:48.758Z,100092.88
2023-03-18T04:55:51.627Z,100099.44
2023-03-18T05:00:53.389Z,100079.44
2023-03-18T05:05:56.162Z,100086.22
2023-03-18T05:10:57.624Z,100094.81
2023-03-18T05:15:59.175Z,100088.44
2023-03-18T05:21:00.822Z,100094.31
2023-03-18T05:26:03.368Z,100091.13
2023-03-18T05:31:06.275Z,100094.81
2023-03-18T05:36:09.271Z,100096.56
2023-03-18T05:41:10.722Z,100103.44
2023-03-18T05:46:12.777Z,100092.38
2023-03-18T05:51:14.284Z,100095.25
2023-03-18T05:56:16.461Z,100091.25
2023-03-18T06:01:19.962Z,100095.81
2023-03-18T06:06:21.396Z,100091.44
2023-03-18T06:11:23.360Z,100096.81
2023-03-18T06:16:25.019Z,100101.88
2023-03-18T06:21:27.200Z,100105.91
2023-03-18T06:26:29.175Z,100098.13
2023-03-18T06:31:31.229Z,100106.16
2023-03-18T06:36:33.560Z,100107.31
2023-03-18T06:41:35.050Z,100120.28
2023-03-18T06:46:37.280Z,100110.81
2023-03-18T06:51:38.974Z,100114.78
2023-03-18T06:56:41.632Z,100105.31
2023-03-18T07:01:43.659Z,100106.09
2023-03-18T07:06:45.476Z,100116.44
2023-03-18T07:11:47.004Z,100104.06
2023-03-18T07:16:48.563Z,100112.69
2023-03-18T07:21:50.154Z,100124.31
2023-03-18T07:26:52.354Z,100114.00
2023-03-18T07:31:54.021Z,100124.53
2023-03-18T07:36:55.746Z,100129.97
2023-03-18T07:41:57.255Z,100127.34
2023-03-18T07:46:58.715Z,100135.91
2023-03-18T07:52:00.151Z,100138.38
2023-03-18T07:57:02.132Z,100136.41
2023-03-18T08:02:04.964Z,100135.66
2023-03-18T08:07:06.600Z,100138.34
2023-03-18T08:12:08.520Z,100132.78
2023-03-18T08:17:10.595Z,100127.28
2023-03-18T08:22:12.127Z,100137.69
2023-03-18T08:27:13.671Z,100137.69
2023-03-18T08:32:16.740Z,100139.47
2023-03-18T08:37:18.722Z,100136.00
2023-03-18T08:42:20.491Z,100147.84
2023-03-18T08:47:21.990Z,100142.00
2023-03-18T08:52:23.607Z,100139.34
2023-03-18T08:57:26.651Z,100140.25
2023-03-18T09:02:28.465Z,100130.59
2023-03-18T09:07:30.677Z,100142.16
2023-03-18T09:12:32.173Z,100147.53
2023-03-18T09:17:51.061Z,100149.97
2023-03-18T09:22:55.031Z,100139.75
2023-03-18T09:27:56.563Z,100129.50
2023-03-18T09:32:58.475Z,100118.50
2023-03-18T09:38:00.154Z,100132.19
2023-03-18T09:43:14.400Z,100122.28
2023-03-18T09:48:34.595Z,100128.22
2023-03-18T09:53:56.774Z,100141.72
2023-03-18T09:59:15.968Z,100137.53
2023-03-18T10:04:28.657Z,100135.13
2023-03-18T10:09:46.900Z,100129.53
2023-03-18T10:15:00.273Z,100129.25
2023-03-18T10:20:04.809Z,100121.09
2023-03-18T10:25:32.694Z,100121.66
2023-03-18T10:30:52.812Z,100124.59
2023-03-18T10:36:09.263Z,100129.16
2023-03-18T10:41:29.666Z,100124.75
2023-03-18T10:46:33.844Z,100122.03
2023-03-18T10:52:06.125Z,100128.88
2023-03-18T10:57:14.417Z,100122.88
2023-03-18T11:02:25.717Z,100112.91
2023-03-18T11:07:28.750Z,100104.81
2023-03-18T11:12:32.396Z,100099.50
2023-03-18T11:17:36.765Z,100119.50
2023-03-18T11:22:45.692Z,100102.94
2023-03-18T11:27:52.662Z,100086.66
2023-03-18T11:33:02.754Z,100089.81
2023-03-18T11:38:04.837Z,100084.78
2023-03-18T11:43:18.883Z,100088.34
2023-03-18T11:48:30.506Z,100081.78
2023-03-18T11:54:02.932Z,100085.22
2023-03-18T11:59:22.984Z,100079.84
2023-03-18T12:04:38.862Z,100074.63
2023-03-18T12:10:05.386Z,100077.63
2023-03-18T12:15:41.100Z,100074.06
2023-03-18T12:20:50.001Z,100067.75
2023-03-18T12:26:00.755Z,100072.28
2023-03-18T12:31:29.390Z,100081.66
2023-03-18T12:37:02.006Z,100083.84
2023-03-18T12:42:12.093Z,100080.94
2023-03-18T12:47:22.899Z,100082.81
2023-03-18T12:52:48.639Z,100083.44
2023-03-18T12:58:14.265Z,100078.31
2023-03-18T13:03:36.093Z,100078.53
2023-03-18T13:09:02.077Z,100067.44
2023-03-18T13:14:29.670Z,100065.97
2023-03-18T13:19:33.848Z,100065.25
2023-03-18T13:24:38.044Z,100068.63
2023-03-18T13:30:06.180Z,100074.69
2023-03-18T13:35:39.161Z,100068.09
2023-03-18T13:41:00.916Z,100061.63
2023-03-18T13:46:04.064Z,100059.22
2023-03-18T13:51:48.159Z,100063.13
2023-03-18T13:56:55.387Z,100054.34
2023-03-18T14:02:00.268Z,100043.59
2023-03-18T14:07:19.266Z,100050.56
2023-03-18T14:12:30.781Z,100047.75
2023-03-18T14:17:58.344Z,100054.50
2023-03-18T14:23:28.578Z,100050.66
2023-03-18T14:28:39.357Z,100047.84
2023-03-18T14:33:52.097Z,100036.28
2023-03-18T14:39:03.677Z,100041.94
2023-03-18T14:44:21.740Z,100028.72
2023-03-18T14:49:33.765Z,100020.97
2023-03-18T14:54:42.752Z,100028.22
2023-03-18T14:59:44.576Z,100038.25
2023-03-18T15:04:55.313Z,100022.56
2023-03-18T15:09:57.062Z,100031.47
2023-03-18T15:14:58.472Z,100032.44
2023-03-18T15:20:01.116Z,100029.16
2023-03-18T15:25:06.177Z,100034.03
2023-03-18T15:30:25.197Z,100030.03
2023-03-18T15:35:28.645Z,100038.66
2023-03-18T15:40:33.150Z,100035.78
2023-03-18T15:45:35.513Z,100052.94
2023-03-18T15:50:37.293Z,100042.53
2023-03-18T15:55:53.621Z,100028.09
2023-03-18T16:00:56.690Z,100035.53
2023-03-18T16:05:58.504Z,100043.97
2023-03-18T16:11:03.950Z,100050.53
2023-03-18T16:16:06.113Z,100054.53
2023-03-18T16:21:09.348Z,100060.63
2023-03-18T16:26:15.970Z,100056.47
2023-03-18T16:31:17.669Z,100066.09
2023-03-18T16:36:32.107Z,100071.09
2023-03-18T16:41:33.561Z,100073.06
2023-03-18T16:46:36.195Z,100078.75
2023-03-18T16:51:37.622Z,100077.00
2023-03-18T16:56:39.528Z,100085.06
2023-03-18T17:01:45.617Z,100082.63
2023-03-18T17:06:47.213Z,100089.66
2023-03-18T17:11:50.542Z,100081.31
2023-03-18T17:16:52.072Z,100088.94
2023-03-18T17:21:56.528Z,100097.13
2023-03-18T17:26:58.026Z,100095.03
2023-03-18T17:32:00.178Z,100100.94
2023-03-18T17:37:01.969Z,100096.75
2023-03-18T17:42:04.364Z,100103.44
2023-03-18T17:47:05.918Z,100115.00
2023-03-18T17:52:10.422Z,100117.09
2023-03-18T17:57:16.313Z,100116.75
2023-03-18T18:02:18.262Z,100112.31
2023-03-18T18:07:24.133Z,100126.47
2023-03-18T18:12:25.637Z,100115.78
2023-03-18T18:17:27.235Z,100121.44
2023-03-18T18:22:28.762Z,100119.22
2023-03-18T18:27:30.180Z,100128.59
2023-03-18T18:32:31.763Z,100125.66
2023-03-18T18:37:33.680Z,100133.28
2023-03-18T18:42:35.094Z,100140.66
2023-03-18T18:47:37.423Z,100135.63
2023-03-18T18:52:38.944Z,100133.53
2023-03-18T18:57:43.982Z,100124.72
2023-03-18T19:02:48.533Z,100129.84
2023-03-18T19:07:50.207Z,100130.84
2023-03-18T19:12:51.633Z,100127.66
2023-03-18T19:17:53.271Z,100119.25
2023-03-18T19:22:56.740Z,100124.66
2023-03-18T19:27:58.645Z,100127.81
2023-03-18T19:33:02.028Z,100119.28
2023-03-18T19:38:03.580Z,100131.50
2023-03-18T19:43:21.649Z,100127.38
2023-03-18T19:48:25.796Z,100129.59
2023-03-18T19:53:27.979Z,100131.53
2023-03-18T19:58:29.755Z,100128.31
2023-03-18T20:03:31.688Z,100125.78
2023-03-18T20:08:33.100Z,100117.44
2023-03-18T20:13:34.526Z,100117.81
2023-03-18T20:18:36.094Z,100117.97
2023-03-18T20:23:37.561Z,100130.22
2023-03-18T20:28:42.529Z,100123.38
2023-03-18T20:33:46.011Z,100117.25
2023-03-18T20:38:49.143Z,100118.03
2023-03-18T20:43:50.872Z,100110.81
2023-03-18T20:48:53.204Z,100114.50
2023-03-18T20:54:12.319Z,100097.75
2023-03-18T20:59:13.891Z,100107.03
2023-03-18T21:04:16.423Z,100109.00
2023-03-18T21:09:17.916Z,100120.66
2023-03-18T21:14:19.332Z,100111.06
2023-03-18T21:19:20.992Z,100123.03
2023-03-18T21:24:27.603Z,100112.50
2023-03-18T21:29:29.045Z,100114.41
2023-03-18T21:34:30.530Z,100115.75
2023-03-18T21:39:32.390Z,100115.09
2023-03-18T21:44:34.273Z,100101.63
2023-03-18T21:49:35.844Z,100102.38
2023-03-18T21:54:37.268Z,100102.59
2023-03-18T21:59:38.692Z,100098.09
2023-03-18T22:04:40.150Z,100098.53
2023-03-18T22:09:42.948Z,100096.84
2023-03-18T22:14:44.426Z,100101.25
2023-03-18T22:19:46.477Z,100108.03
2023-03-18T22:24:49.122Z,100109.19
2023-03-18T22:29:51.643Z,100104.03
2023-03-18T22:34:54.352Z,100111.47
2023-03-18T22:39:55.845Z,100123.31
2023-03-18T22:44:57.253Z,100118.56
2023-03-18T22:49:58.659Z,100113.41
2023-03-18T22:55:02.405Z,100114.94
2023-03-18T23:00:15.084Z,100101.56
2023-03-18T23:05:18.835Z,100108.56
2023-03-18T23:10:21.029Z,100107.38
2023-03-18T23:15:22.886Z,100121.59
2023-03-18T23:20:24.335Z,100123.13
2023-03-18T23:25:25.891Z,100120.66
2023-03-18T23:30:27.390Z,100126.44
2023-03-18T23:35:30.075Z,100119.78
2023-03-18T23:40:31.768Z,100130.75
2023-03-18T23:45:33.529Z,100128.47
2023-03-18T23:50:35.332Z,100127.59
2023-03-18T23:55:36.810Z,100125.50
